createdAt,value
2022-08-26T00:01:32.970Z,96781.47
2022-08-26T00:05:32.189Z,96787.72
2022-08-26T00:09:29.527Z,96780.84
2022-08-26T00:13:26.719Z,96787.50
2022-08-26T00:17:24.197Z,96783.66
2022-08-26T00:21:24.901Z,96780.13
2022-08-26T00:25:22.703Z,96789.50
2022-08-26T00:29:21.272Z,96777.94
2022-08-26T00:33:21.440Z,96790.81
2022-08-26T00:37:18.759Z,96780.56
2022-08-26T00:41:18.107Z,96776.06
2022-08-26T00:45:16.266Z,96772.94
2022-08-26T00:49:36.231Z,96757.53
2022-08-26T00:53:43.566Z,96785.81
2022-08-26T00:57:41.568Z,96765.16
2022-08-26T01:01:43.180Z,96770.03
2022-08-26T01:05:44.035Z,96793.59
2022-08-26T01:09:41.187Z,96768.34
2022-08-26T01:13:40.526Z,96795.00
2022-08-26T01:17:38.743Z,96792.25
2022-08-26T01:21:54.744Z,96796.47
2022-08-26T01:26:05.078Z,96791.28
2022-08-26T01:30:05.659Z,96757.88
2022-08-26T01:34:17.823Z,96750.69
2022-08-26T01:38:18.431Z,96792.94
2022-08-26T01:42:19.848Z,96767.00
2022-08-26T01:46:19.783Z,96761.09
2022-08-26T01:50:30.739Z,96772.81
2022-08-26T01:54:28.044Z,96756.59
2022-08-26T01:58:36.603Z,96782.09
2022-08-26T02:02:33.804Z,96782.09
2022-08-26T02:06:31.989Z,96769.88
2022-08-26T02:10:29.823Z,96776.50
2022-08-26T02:14:34.835Z,96787.63
2022-08-26T02:18:36.610Z,96777.53
2022-08-26T02:22:34.653Z,96775.00
2022-08-26T02:26:31.681Z,96780.06
2022-08-26T02:30:33.692Z,96749.19
2022-08-26T02:34:33.176Z,96763.00
2022-08-26T02:38:30.282Z,96761.19
2022-08-26T02:42:28.494Z,96776.44
2022-08-26T02:46:29.852Z,96775.31
2022-08-26T02:50:27.555Z,96772.25
2022-08-26T02:54:24.591Z,96783.47
2022-08-26T02:58:21.733Z,96777.69
2022-08-26T03:02:18.823Z,96757.88
2022-08-26T03:06:16.071Z,96772.16
2022-08-26T03:10:13.423Z,96767.63
2022-08-26T03:14:12.011Z,96770.78
2022-08-26T03:18:09.837Z,96749.75
2022-08-26T03:22:07.368Z,96744.47
2022-08-26T03:26:05.851Z,96762.44
2022-08-26T03:30:22.787Z,96760.47
2022-08-26T03:34:20.189Z,96766.19
2022-08-26T03:38:25.805Z,96745.94
2022-08-26T03:42:23.344Z,96745.38
2022-08-26T03:46:20.971Z,96767.84
2022-08-26T03:50:23.033Z,96727.81
2022-08-26T03:54:21.383Z,96742.19
2022-08-26T03:58:19.056Z,96748.66
2022-08-26T04:02:16.771Z,96739.34
2022-08-26T04:06:14.894Z,96751.41
2022-08-26T04:10:20.276Z,96755.38
2022-08-26T04:14:23.490Z,96755.72
2022-08-26T04:18:21.533Z,96751.22
2022-08-26T04:22:24.018Z,96751.97
2022-08-26T04:26:23.903Z,96764.28
2022-08-26T04:30:21.955Z,96759.97
2022-08-26T04:34:19.454Z,96752.75
2022-08-26T04:38:16.987Z,96762.13
2022-08-26T04:42:21.036Z,96758.81
2022-08-26T04:46:25.456Z,96754.16
2022-08-26T04:50:23.866Z,96754.97
2022-08-26T04:54:22.167Z,96751.47
2022-08-26T04:58:22.351Z,96761.34
2022-08-26T05:02:20.914Z,96764.59
2022-08-26T05:06:19.505Z,96763.81
2022-08-26T05:10:16.555Z,96760.56
2022-08-26T05:14:16.143Z,96763.69
2022-08-26T05:18:16.516Z,96767.34
2022-08-26T05:22:14.584Z,96771.13
2022-08-26T05:26:12.091Z,96755.13
2022-08-26T05:30:13.922Z,96764.66
2022-08-26T05:34:11.042Z,96770.09
2022-08-26T05:38:13.436Z,96785.16
2022-08-26T05:42:10.464Z,96750.31
2022-08-26T05:46:08.136Z,96781.88
2022-08-26T05:50:06.115Z,96770.03
2022-08-26T05:54:04.159Z,96764.13
2022-08-26T05:58:02.769Z,96771.47
2022-08-26T06:01:59.929Z,96766.84
2022-08-26T06:05:57.248Z,96777.22
2022-08-26T06:10:01.624Z,96769.56
2022-08-26T06:14:11.852Z,96756.19
2022-08-26T06:18:09.462Z,96756.69
2022-08-26T06:22:27.162Z,96766.66
2022-08-26T06:26:24.426Z,96756.72
2022-08-26T06:30:21.886Z,96773.16
2022-08-26T06:34:20.136Z,96771.00
2022-08-26T06:38:17.939Z,96784.63
2022-08-26T06:42:14.937Z,96778.44
2022-08-26T06:46:17.298Z,96783.88
2022-08-26T06:50:14.369Z,96786.91
2022-08-26T06:54:11.672Z,96777.34
2022-08-26T06:58:09.919Z,96792.25
2022-08-26T07:02:07.434Z,96766.78
2022-08-26T07:06:05.574Z,96781.31
2022-08-26T07:10:05.779Z,96784.09
2022-08-26T07:14:04.457Z,96790.63
2022-08-26T07:18:03.208Z,96789.19
2022-08-26T07:22:04.217Z,96761.03
2022-08-26T07:26:11.564Z,96789.09
2022-08-26T07:30:09.528Z,96779.50
2022-08-26T07:34:13.972Z,96785.81
2022-08-26T07:38:12.889Z,96765.94
2022-08-26T07:42:13.815Z,96783.59
2022-08-26T07:46:18.610Z,96716.56
2022-08-26T07:50:49.549Z,96793.28
2022-08-26T07:54:41.558Z,96787.41
2022-08-26T07:58:38.919Z,96788.03
2022-08-26T08:02:38.504Z,96781.50
2022-08-26T08:06:37.522Z,96757.00
2022-08-26T08:10:36.605Z,96776.75
2022-08-26T08:14:36.523Z,96782.16
2022-08-26T08:18:34.076Z,96776.09
2022-08-26T08:22:32.556Z,96772.59
2022-08-26T08:26:30.082Z,96762.66
2022-08-26T08:30:28.508Z,96756.56
2022-08-26T08:34:28.706Z,96745.72
2022-08-26T08:38:27.287Z,96748.81
2022-08-26T08:42:45.761Z,96749.06
2022-08-26T08:46:46.912Z,96745.34
2022-08-26T08:50:53.994Z,96734.25
2022-08-26T08:54:51.138Z,96718.63
2022-08-26T08:59:04.344Z,96724.34
2022-08-26T09:03:19.310Z,96720.06
2022-08-26T09:07:23.524Z,96707.22
2022-08-26T09:11:21.783Z,96711.97
2022-08-26T09:15:46.767Z,96715.47
2022-08-26T09:19:52.830Z,96707.13
2022-08-26T09:23:52.907Z,96707.53
2022-08-26T09:27:53.508Z,96701.19
2022-08-26T09:31:52.198Z,96703.84
2022-08-26T09:35:52.389Z,96701.00
2022-08-26T09:39:49.439Z,96696.66
2022-08-26T09:44:14.656Z,96689.72
2022-08-26T09:48:29.030Z,96691.63
2022-08-26T09:52:27.568Z,96682.81
2022-08-26T09:56:35.555Z,96663.81
2022-08-26T10:00:58.647Z,96656.13
2022-08-26T10:04:59.337Z,96649.09
2022-08-26T10:09:10.943Z,96641.28
2022-08-26T10:13:42.975Z,96623.72
2022-08-26T10:17:51.795Z,96611.47
2022-08-26T10:22:07.633Z,96620.03
2022-08-26T10:26:15.862Z,96625.66
2022-08-26T10:30:19.444Z,96611.13
2022-08-26T10:34:17.969Z,96611.00
2022-08-26T10:38:22.827Z,96594.31
2022-08-26T10:42:37.626Z,96593.59
2022-08-26T10:46:45.618Z,96580.56
2022-08-26T10:50:47.943Z,96582.38
2022-08-26T10:54:56.501Z,96572.56
2022-08-26T10:59:16.694Z,96572.19
2022-08-26T11:03:54.213Z,96574.19
2022-08-26T11:08:20.861Z,96569.63
2022-08-26T11:13:05.015Z,96561.84
2022-08-26T11:17:02.495Z,96547.56
2022-08-26T11:20:59.565Z,96555.72
2022-08-26T11:24:56.486Z,96558.75
2022-08-26T11:28:53.722Z,96563.03
2022-08-26T11:32:56.367Z,96527.06
2022-08-26T11:36:59.149Z,96544.41
2022-08-26T11:41:09.020Z,96545.72
2022-08-26T11:45:39.074Z,96515.50
2022-08-26T11:49:37.910Z,96524.22
2022-08-26T11:53:41.121Z,96530.59
2022-08-26T11:57:52.003Z,96518.03
2022-08-26T12:01:53.508Z,96518.97
2022-08-26T12:05:53.996Z,96511.16
2022-08-26T12:09:59.264Z,96511.56
2022-08-26T12:14:16.118Z,96505.31
2022-08-26T12:18:30.093Z,96511.38
2022-08-26T12:22:32.695Z,96502.38
2022-08-26T12:26:37.232Z,96499.41
2022-08-26T12:30:34.581Z,96499.19
2022-08-26T12:34:31.757Z,96498.91
2022-08-26T12:38:32.038Z,96506.09
2022-08-26T12:42:42.467Z,96474.41
2022-08-26T12:46:39.552Z,96518.38
2022-08-26T12:50:47.146Z,96533.38
2022-08-26T12:54:59.792Z,96583.06
2022-08-26T12:59:23.290Z,96624.63
2022-08-26T13:03:35.333Z,96719.72
2022-08-26T13:07:32.437Z,96678.13
2022-08-26T13:11:45.156Z,96670.94
2022-08-26T13:15:42.197Z,96645.28
2022-08-26T13:19:39.200Z,96630.25
2022-08-26T13:23:40.600Z,96614.47
2022-08-26T13:27:39.423Z,96639.38
2022-08-26T13:31:39.928Z,96644.31
2022-08-26T13:35:36.931Z,96639.13
2022-08-26T13:39:34.112Z,96640.25
2022-08-26T13:43:31.779Z,96635.81
2022-08-26T13:47:28.945Z,96622.22
2022-08-26T13:51:27.499Z,96612.38
2022-08-26T13:55:28.041Z,96630.19
2022-08-26T13:59:25.132Z,96618.13
2022-08-26T14:03:22.532Z,96622.50
2022-08-26T14:07:19.624Z,96633.56
2022-08-26T14:11:17.116Z,96639.31
2022-08-26T14:15:16.886Z,96607.66
2022-08-26T14:19:14.156Z,96611.38
2022-08-26T14:23:13.986Z,96634.56
2022-08-26T14:27:13.212Z,96634.56
2022-08-26T14:31:10.352Z,96610.84
2022-08-26T14:35:10.152Z,96614.09
2022-08-26T14:39:11.838Z,96614.13
2022-08-26T14:43:09.715Z,96599.09
2022-08-26T14:47:07.057Z,96584.00
2022-08-26T14:51:05.453Z,96583.56
2022-08-26T14:55:02.428Z,96560.91
2022-08-26T14:58:59.860Z,96561.41
2022-08-26T15:02:58.590Z,96561.88
2022-08-26T15:06:58.903Z,96565.38
2022-08-26T15:10:56.025Z,96555.78
2022-08-26T15:14:53.721Z,96557.13
2022-08-26T15:18:51.796Z,96553.00
2022-08-26T15:22:48.983Z,96546.66
2022-08-26T15:26:49.603Z,96558.41
2022-08-26T15:30:46.722Z,96544.81
2022-08-26T15:34:44.029Z,96540.88
2022-08-26T15:38:42.602Z,96531.28
2022-08-26T15:42:39.711Z,96506.22
2022-08-26T15:46:38.379Z,96535.06
2022-08-26T15:50:35.690Z,96521.03
2022-08-26T15:54:32.734Z,96517.03
2022-08-26T15:58:29.985Z,96497.41
2022-08-26T16:02:31.796Z,96536.22
2022-08-26T16:06:33.650Z,96549.31
2022-08-26T16:10:34.494Z,96537.56
2022-08-26T16:14:31.579Z,96533.84
2022-08-26T16:18:28.992Z,96548.16
2022-08-26T16:22:27.090Z,96528.16
2022-08-26T16:26:32.515Z,96563.44
2022-08-26T16:30:29.535Z,96571.34
2022-08-26T16:34:26.552Z,96554.16
2022-08-26T16:38:23.617Z,96589.22
2022-08-26T16:42:20.742Z,96592.41
2022-08-26T16:46:18.518Z,96568.00
2022-08-26T16:50:17.782Z,96582.47
2022-08-26T16:54:14.872Z,96594.03
2022-08-26T16:58:11.951Z,96597.84
2022-08-26T17:02:11.676Z,96595.94
2022-08-26T17:06:11.385Z,96561.03
2022-08-26T17:10:34.096Z,96561.78
2022-08-26T17:14:50.904Z,96564.09
2022-08-26T17:41:00.926Z,96407.72
2022-08-26T17:50:49.825Z,96570.50
2022-08-26T18:00:47.501Z,96619.91
2022-08-26T18:04:49.112Z,96582.56
2022-08-26T18:14:43.079Z,96623.00
2022-08-26T18:18:53.622Z,96556.69
2022-08-26T18:22:54.498Z,96619.63
2022-08-26T18:26:51.528Z,96613.19
2022-08-26T18:30:48.554Z,96622.81
2022-08-26T18:34:45.576Z,96631.56
2022-08-26T18:38:42.747Z,96631.50
2022-08-26T18:42:41.462Z,96634.16
2022-08-26T18:46:38.488Z,96613.66
2022-08-26T18:50:40.312Z,96649.78
2022-08-26T18:54:37.678Z,96654.78
2022-08-26T18:58:34.875Z,96622.84
2022-08-26T19:02:32.825Z,96597.16
2022-08-26T19:06:33.124Z,96638.81
2022-08-26T19:10:30.286Z,96657.13
2022-08-26T19:14:28.672Z,96661.44
2022-08-26T19:18:26.034Z,96640.78
2022-08-26T19:22:23.539Z,96638.22
2022-08-26T19:26:20.557Z,96652.19
2022-08-26T19:30:17.551Z,96648.38
2022-08-26T19:34:15.421Z,96649.94
2022-08-26T19:38:16.769Z,96659.06
2022-08-26T19:42:14.298Z,96654.41
2022-08-26T19:46:20.170Z,96661.66
2022-08-26T19:50:17.908Z,96673.56
2022-08-26T19:54:15.380Z,96654.31
2022-08-26T19:58:12.393Z,96658.63
2022-08-26T20:02:11.139Z,96663.81
2022-08-26T20:06:13.374Z,96617.88
2022-08-26T20:10:13.779Z,96648.69
2022-08-26T20:14:10.877Z,96647.63
2022-08-26T20:18:26.980Z,96655.03
2022-08-26T20:22:24.500Z,96615.69
2022-08-26T20:26:21.631Z,96633.69
2022-08-26T20:30:18.758Z,96642.88
2022-08-26T20:34:18.634Z,96655.75
2022-08-26T20:38:18.490Z,96649.69
2022-08-26T20:42:20.361Z,96623.19
2022-08-26T20:46:24.544Z,96602.41
2022-08-26T20:50:24.651Z,96628.63
2022-08-26T20:54:28.415Z,96611.78
2022-08-26T20:58:26.110Z,96600.84
2022-08-26T21:02:23.155Z,96592.69
2022-08-26T21:06:21.163Z,96613.78
2022-08-26T21:10:18.970Z,96624.94
2022-08-26T21:14:19.101Z,96617.59
2022-08-26T21:18:16.447Z,96604.63
2022-08-26T21:22:14.060Z,96587.06
2022-08-26T21:26:15.593Z,96617.38
2022-08-26T21:30:16.109Z,96605.94
2022-08-26T21:34:18.631Z,96628.06
2022-08-26T21:38:17.994Z,96632.09
2022-08-26T21:42:15.041Z,96624.69
2022-08-26T21:46:16.288Z,96677.84
2022-08-26T21:50:16.002Z,96711.25
2022-08-26T21:54:14.003Z,96705.31
2022-08-26T21:58:12.614Z,96701.09
2022-08-26T22:02:10.486Z,96696.22
2022-08-26T22:06:08.041Z,96677.41
2022-08-26T22:10:05.676Z,96685.84
2022-08-26T22:14:03.145Z,96677.69
2022-08-26T22:18:00.579Z,96668.59
2022-08-26T22:21:58.759Z,96684.81
2022-08-26T22:25:57.173Z,96658.44
2022-08-26T22:29:54.339Z,96598.84
2022-08-26T22:33:51.905Z,96633.38
2022-08-26T22:37:49.528Z,96641.88
2022-08-26T22:41:48.701Z,96652.28
2022-08-26T22:45:48.668Z,96650.09
2022-08-26T22:49:46.989Z,96614.56
2022-08-26T22:53:45.292Z,96605.31
2022-08-26T22:57:42.371Z,96626.44
2022-08-26T23:01:43.296Z,96627.44
2022-08-26T23:05:41.539Z,96609.75
2022-08-26T23:09:38.699Z,96631.75
2022-08-26T23:13:36.811Z,96600.44
2022-08-26T23:17:35.459Z,96613.59
2022-08-26T23:21:32.931Z,96620.38
2022-08-26T23:25:31.154Z,96630.31
2022-08-26T23:29:29.015Z,96632.81
2022-08-26T23:33:46.275Z,96613.53
2022-08-26T23:37:48.465Z,96590.59
2022-08-26T23:41:46.453Z,96615.34
2022-08-26T23:45:43.930Z,96627.69
2022-08-26T23:49:41.896Z,96621.44
2022-08-26T23:53:39.065Z,96627.75
2022-08-26T23:57:36.978Z,96633.28
